createdAt,value
2019-02-04T00:00:45.360Z,4.87
2019-02-04T00:03:17.910Z,4.93
2019-02-04T00:05:48.974Z,4.98
2019-02-04T00:08:19.751Z,4.99
2019-02-04T00:10:53.044Z,4.98
2019-02-04T00:13:26.121Z,4.98
2019-02-04T00:15:59.127Z,5.01
2019-02-04T00:18:29.786Z,5.03
2019-02-04T00:21:06.722Z,5.03
2019-02-04T00:23:35.124Z,5.05
2019-02-04T00:26:05.984Z,5.04
2019-02-04T00:28:38.218Z,5.04
2019-02-04T00:31:12.595Z,5.05
2019-02-04T00:33:44.318Z,5.09
2019-02-04T00:36:15.126Z,5.10
2019-02-04T00:38:46.076Z,5.09
2019-02-04T00:41:17.324Z,5.09
2019-02-04T00:43:48.277Z,5.16
2019-02-04T00:46:19.201Z,5.11
2019-02-04T00:48:51.591Z,5.07
2019-02-04T00:51:24.707Z,5.10
2019-02-04T00:53:55.693Z,5.02
2019-02-04T00:56:28.560Z,5.01
2019-02-04T00:58:59.735Z,5.03
2019-02-04T01:01:30.494Z,5.00
2019-02-04T01:04:01.159Z,4.97
2019-02-04T01:06:32.327Z,4.96
2019-02-04T01:09:04.974Z,4.91
2019-02-04T01:11:35.685Z,4.86
2019-02-04T01:14:06.594Z,4.78
2019-02-04T01:16:44.729Z,4.73
2019-02-04T01:19:17.891Z,4.68
2019-02-04T01:21:48.886Z,4.65
2019-02-04T01:24:19.704Z,4.61
2019-02-04T01:26:50.484Z,4.57
2019-02-04T01:29:21.292Z,4.54
2019-02-04T01:31:52.993Z,4.56
2019-02-04T01:34:23.936Z,4.56
2019-02-04T01:36:54.800Z,4.57
2019-02-04T01:39:26.978Z,4.60
2019-02-04T01:41:57.780Z,4.59
2019-02-04T01:44:30.669Z,4.63
2019-02-04T01:47:02.509Z,4.69
2019-02-04T01:49:33.743Z,4.78
2019-02-04T01:52:04.441Z,4.76
2019-02-04T01:54:35.216Z,4.70
2019-02-04T01:57:09.492Z,4.66
2019-02-04T01:59:40.232Z,4.72
2019-02-04T02:02:10.957Z,4.80
2019-02-04T02:04:43.717Z,4.90
2019-02-04T02:07:16.828Z,4.89
2019-02-04T02:09:48.431Z,4.94
2019-02-04T02:12:19.364Z,4.94
2019-02-04T02:14:50.280Z,4.95
2019-02-04T02:17:26.334Z,4.95
2019-02-04T02:19:53.774Z,4.86
2019-02-04T02:22:24.998Z,4.78
2019-02-04T02:24:55.771Z,4.70
2019-02-04T02:27:26.588Z,4.63
2019-02-04T02:29:59.534Z,4.55
2019-02-04T02:32:30.287Z,4.49
2019-02-04T02:35:01.512Z,4.43
2019-02-04T02:37:34.198Z,4.38
2019-02-04T02:40:07.289Z,4.35
2019-02-04T02:42:38.060Z,4.34
2019-02-04T02:45:09.591Z,4.35
2019-02-04T02:47:40.798Z,4.42
2019-02-04T02:50:16.707Z,4.44
2019-02-04T02:52:47.490Z,4.41
2019-02-04T02:55:20.490Z,4.37
2019-02-04T02:57:51.270Z,4.36
2019-02-04T03:00:29.216Z,4.34
2019-02-04T03:03:00.188Z,4.31
2019-02-04T03:05:31.082Z,4.31
2019-02-04T03:08:07.150Z,4.36
2019-02-04T03:10:39.657Z,4.39
2019-02-04T03:13:10.764Z,4.40
2019-02-04T03:15:41.698Z,4.41
2019-02-04T03:18:12.383Z,4.42
2019-02-04T03:20:43.374Z,4.43
2019-02-04T03:23:14.139Z,4.35
2019-02-04T03:25:44.789Z,4.29
2019-02-04T03:28:15.548Z,4.22
2019-02-04T03:30:46.967Z,4.18
2019-02-04T03:33:18.301Z,4.21
2019-02-04T03:35:50.145Z,4.21
2019-02-04T03:38:20.996Z,4.19
2019-02-04T03:40:51.649Z,4.11
2019-02-04T03:43:22.459Z,4.07
2019-02-04T03:45:53.203Z,4.09
2019-02-04T03:48:24.098Z,4.08
2019-02-04T03:50:54.977Z,4.06
2019-02-04T03:53:28.671Z,4.06
2019-02-04T03:56:02.565Z,4.06
2019-02-04T03:58:37.308Z,4.05
2019-02-04T04:01:12.143Z,4.03
2019-02-04T04:03:47.379Z,3.99
2019-02-04T04:06:23.267Z,3.97
2019-02-04T04:09:01.534Z,3.92
2019-02-04T04:11:42.547Z,3.92
2019-02-04T04:14:15.236Z,3.89
2019-02-04T04:17:31.319Z,3.87
2019-02-04T04:20:06.188Z,3.80
2019-02-04T04:22:37.704Z,3.82
2019-02-04T04:25:15.665Z,3.82
2019-02-04T04:27:47.335Z,3.83
2019-02-04T04:30:24.382Z,3.86
2019-02-04T04:32:55.767Z,3.91
2019-02-04T04:35:28.956Z,3.93
2019-02-04T04:38:00.571Z,3.95
2019-02-04T04:40:31.444Z,3.98
2019-02-04T04:43:02.856Z,3.98
2019-02-04T04:45:34.246Z,4.02
2019-02-04T04:48:05.328Z,4.02
2019-02-04T04:50:36.947Z,4.02
2019-02-04T04:53:13.094Z,3.99
2019-02-04T04:55:45.743Z,4.00
2019-02-04T04:58:19.649Z,4.04
2019-02-04T05:00:50.106Z,4.02
2019-02-04T05:03:26.202Z,3.99
2019-02-04T05:05:57.313Z,3.93
2019-02-04T05:08:29.174Z,3.91
2019-02-04T05:11:06.110Z,3.89
2019-02-04T05:13:37.330Z,3.86
2019-02-04T05:16:08.167Z,3.88
2019-02-04T05:18:45.969Z,3.88
2019-02-04T05:21:19.443Z,3.86
2019-02-04T05:23:50.775Z,3.89
2019-02-04T05:26:31.703Z,3.90
2019-02-04T05:29:38.240Z,3.90
2019-02-04T05:32:20.057Z,3.87
2019-02-04T05:34:57.530Z,3.85
2019-02-04T05:37:51.486Z,3.83
2019-02-04T05:40:30.883Z,3.82
2019-02-04T05:43:06.662Z,3.81
2019-02-04T05:45:47.514Z,3.79
2019-02-04T05:48:23.335Z,3.72
2019-02-04T05:50:55.359Z,3.69
2019-02-04T05:53:26.132Z,3.69
2019-02-04T05:56:05.807Z,3.65
2019-02-04T05:58:36.092Z,3.63
2019-02-04T06:01:09.076Z,3.63
2019-02-04T06:03:39.957Z,3.56
2019-02-04T06:06:10.606Z,3.54
2019-02-04T06:08:44.681Z,3.53
2019-02-04T06:11:15.373Z,3.53
2019-02-04T06:13:46.580Z,3.54
2019-02-04T06:16:20.655Z,3.52
2019-02-04T06:19:00.816Z,3.50
2019-02-04T06:21:30.460Z,3.47
2019-02-04T06:24:03.872Z,3.50
2019-02-04T06:26:43.935Z,3.52
2019-02-04T06:29:16.531Z,3.49
2019-02-04T06:31:47.452Z,3.47
2019-02-04T06:34:19.665Z,3.48
2019-02-04T06:36:50.514Z,3.47
2019-02-04T06:39:21.484Z,3.43
2019-02-04T06:41:52.193Z,3.41
2019-02-04T06:44:22.873Z,3.41
2019-02-04T06:46:58.161Z,3.42
2019-02-04T06:49:42.259Z,3.43
2019-02-04T06:52:13.447Z,3.43
2019-02-04T06:54:47.200Z,3.42
2019-02-04T06:57:22.098Z,3.39
2019-02-04T06:59:52.872Z,3.37
2019-02-04T07:02:23.992Z,3.39
2019-02-04T07:04:56.297Z,3.33
2019-02-04T07:07:30.193Z,3.30
2019-02-04T07:10:00.965Z,3.33
2019-02-04T07:12:32.913Z,3.40
2019-02-04T07:15:06.875Z,3.38
2019-02-04T07:17:39.733Z,3.36
2019-02-04T07:20:17.192Z,3.36
2019-02-04T07:22:48.142Z,3.35
2019-02-04T07:25:23.057Z,3.37
2019-02-04T07:27:57.655Z,3.37
2019-02-04T07:30:32.168Z,3.35
2019-02-04T07:33:14.746Z,3.38
2019-02-04T07:35:46.089Z,3.38
2019-02-04T07:38:22.555Z,3.41
2019-02-04T07:40:53.219Z,3.49
2019-02-04T07:43:33.446Z,3.53
2019-02-04T07:46:04.835Z,3.46
2019-02-04T07:48:36.419Z,3.47
2019-02-04T07:51:11.670Z,3.50
2019-02-04T07:53:42.892Z,3.53
2019-02-04T07:56:14.009Z,3.60
2019-02-04T07:58:45.109Z,3.65
2019-02-04T08:01:16.139Z,3.66
2019-02-04T08:03:50.135Z,3.69
2019-02-04T08:06:24.695Z,3.71
2019-02-04T08:08:55.712Z,3.76
2019-02-04T08:11:27.737Z,3.77
2019-02-04T08:14:22.217Z,3.96
2019-02-04T08:17:03.888Z,3.98
2019-02-04T08:19:47.122Z,4.03
2019-02-04T08:22:19.178Z,4.04
2019-02-04T08:37:06.902Z,4.09
2019-02-04T08:39:44.660Z,4.05
2019-02-04T08:42:26.199Z,3.98
2019-02-04T08:45:15.310Z,3.99
2019-02-04T08:48:04.993Z,4.10
2019-02-04T08:50:33.067Z,4.16
2019-02-04T08:53:06.083Z,4.37
2019-02-04T08:55:43.072Z,4.40
2019-02-04T08:58:23.810Z,4.44
2019-02-04T09:01:16.828Z,4.48
2019-02-04T09:03:41.482Z,4.55
2019-02-04T09:06:08.827Z,4.59
2019-02-04T09:08:41.277Z,4.60
2019-02-04T09:11:16.756Z,4.65
2019-02-04T09:13:51.964Z,4.72
2019-02-04T09:16:29.790Z,4.80
2019-02-04T09:19:00.084Z,4.91
2019-02-04T09:21:32.690Z,4.95
2019-02-04T09:24:07.108Z,4.99
2019-02-04T09:26:42.963Z,4.94
2019-02-04T09:29:16.193Z,5.02
2019-02-04T09:31:51.909Z,5.09
2019-02-04T09:34:25.186Z,5.18
2019-02-04T09:36:55.381Z,5.25
2019-02-04T09:39:28.444Z,5.31
2019-02-04T09:42:01.934Z,5.44
2019-02-04T09:44:32.018Z,5.53
2019-02-04T09:47:06.857Z,5.76
2019-02-04T09:49:39.059Z,5.79
2019-02-04T09:52:13.710Z,5.87
2019-02-04T09:54:44.464Z,5.99
2019-02-04T09:57:17.661Z,6.08
2019-02-04T09:59:48.883Z,6.17
2019-02-04T10:02:21.893Z,6.01
2019-02-04T10:04:52.538Z,6.03
2019-02-04T10:07:23.251Z,6.12
2019-02-04T10:09:54.334Z,6.23
2019-02-04T10:12:29.894Z,6.27
2019-02-04T10:15:01.264Z,6.26
2019-02-04T10:17:35.677Z,6.29
2019-02-04T10:20:07.550Z,6.39
2019-02-04T10:22:38.354Z,6.44
2019-02-04T10:25:11.004Z,6.44
2019-02-04T10:27:41.837Z,6.40
2019-02-04T10:30:21.113Z,6.49
2019-02-04T10:32:53.559Z,6.50
2019-02-04T10:35:25.567Z,6.66
2019-02-04T10:37:58.259Z,6.89
2019-02-04T10:40:29.677Z,7.02
2019-02-04T10:43:06.599Z,7.07
2019-02-04T10:45:37.630Z,7.12
2019-02-04T10:48:08.993Z,7.20
2019-02-04T10:50:54.089Z,7.26
2019-02-04T10:53:30.669Z,7.48
2019-02-04T10:56:21.626Z,7.44
2019-02-04T10:59:10.533Z,7.43
2019-02-04T11:02:03.266Z,7.52
2019-02-04T11:04:43.483Z,7.47
2019-02-04T11:07:27.575Z,7.61
2019-02-04T11:10:10.124Z,7.90
2019-02-04T11:12:42.349Z,7.97
2019-02-04T11:15:31.002Z,7.96
2019-02-04T11:18:03.915Z,7.88
2019-02-04T11:20:38.744Z,7.88
2019-02-04T11:23:30.744Z,7.93
2019-02-04T11:27:15.483Z,8.31
2019-02-04T11:30:01.687Z,8.28
2019-02-04T11:32:49.740Z,8.24
2019-02-04T11:35:35.155Z,8.59
2019-02-04T11:38:08.031Z,8.50
2019-02-04T11:40:45.997Z,8.46
2019-02-04T11:43:15.962Z,8.30
2019-02-04T11:45:59.920Z,8.19
2019-02-04T11:49:06.659Z,8.08
2019-02-04T11:51:42.613Z,8.11
2019-02-04T11:54:52.004Z,8.08
2019-02-04T11:57:27.180Z,8.16
2019-02-04T12:00:10.407Z,8.27
2019-02-04T12:03:39.286Z,8.31
2019-02-04T12:06:17.392Z,8.31
2019-02-04T12:08:50.081Z,8.28
2019-02-04T12:11:30.751Z,8.36
2019-02-04T12:14:04.986Z,8.56
2019-02-04T12:17:04.269Z,8.64
2019-02-04T12:19:37.653Z,8.61
2019-02-04T12:22:32.160Z,8.50
2019-02-04T12:24:40.855Z,8.41
2019-02-04T12:27:35.557Z,8.39
2019-02-04T12:30:02.056Z,8.55
2019-02-04T12:32:35.954Z,8.73
2019-02-04T12:35:17.384Z,8.75
2019-02-04T12:37:51.410Z,8.78
2019-02-04T12:40:27.110Z,8.83
2019-02-04T12:43:15.635Z,8.98
2019-02-04T12:45:45.967Z,9.01
2019-02-04T12:48:57.881Z,8.94
2019-02-04T12:51:34.023Z,8.89
2019-02-04T12:54:14.275Z,8.86
2019-02-04T12:56:48.277Z,8.82
2019-02-04T12:59:28.931Z,8.77
2019-02-04T13:02:22.978Z,8.72
2019-02-04T13:05:20.919Z,8.75
2019-02-04T13:07:49.021Z,8.90
2019-02-04T13:10:18.955Z,9.14
2019-02-04T13:12:53.427Z,9.11
2019-02-04T13:15:27.265Z,8.95
2019-02-04T13:20:09.856Z,8.96
2019-02-04T13:22:20.354Z,9.34
2019-02-04T13:25:10.623Z,9.12
2019-02-04T13:27:46.606Z,8.83
2019-02-04T13:30:27.635Z,8.71
2019-02-04T13:33:02.284Z,8.71
2019-02-04T13:35:33.553Z,8.66
2019-02-04T13:41:18.103Z,8.53
2019-02-04T13:44:10.385Z,8.47
2019-02-04T13:46:58.553Z,8.31
2019-02-04T13:49:58.654Z,8.32
2019-02-04T13:52:36.750Z,8.23
2019-02-04T13:55:31.936Z,8.27
2019-02-04T13:58:12.544Z,8.28
2019-02-04T14:01:04.267Z,8.22
2019-02-04T14:03:50.109Z,8.08
2019-02-04T14:06:33.974Z,7.98
2019-02-04T14:09:19.219Z,8.00
2019-02-04T14:12:05.737Z,8.02
2019-02-04T14:15:06.893Z,8.05
2019-02-04T14:17:55.299Z,7.96
2019-02-04T14:21:14.580Z,7.91
2019-02-04T14:24:22.121Z,7.78
2019-02-04T14:27:34.037Z,7.80
2019-02-04T14:30:39.204Z,7.81
2019-02-04T14:33:19.693Z,7.81
2019-02-04T14:36:10.417Z,7.77
2019-02-04T14:38:59.497Z,7.73
2019-02-04T14:41:50.951Z,7.66
2019-02-04T14:45:20.080Z,7.59
2019-02-04T14:49:03.527Z,7.42
2019-02-04T14:54:21.358Z,7.18
2019-02-04T14:56:25.296Z,7.13
2019-02-04T15:00:16.785Z,6.99
2019-02-04T15:04:08.940Z,6.90
2019-02-04T15:07:59.685Z,6.83
2019-02-04T15:11:33.974Z,6.74
2019-02-04T15:15:21.508Z,6.73
2019-02-04T15:19:07.133Z,6.62
2019-02-04T15:22:47.459Z,6.54
2019-02-04T15:26:10.215Z,6.44
2019-02-04T15:38:35.686Z,6.24
2019-02-04T15:40:17.408Z,6.15
2019-02-04T15:43:57.293Z,6.11
2019-02-04T15:47:12.835Z,5.99
2019-02-04T15:54:24.803Z,5.83
2019-02-04T16:06:57.381Z,5.60
2019-02-04T16:09:25.622Z,5.56
2019-02-04T16:12:13.452Z,5.52
2019-02-04T16:14:48.622Z,5.47
2019-02-04T16:17:29.063Z,5.45
2019-02-04T16:20:13.886Z,5.48
2019-02-04T16:23:12.154Z,5.46
2019-02-04T16:25:41.054Z,5.45
2019-02-04T16:28:15.616Z,5.45
2019-02-04T16:30:50.723Z,5.44
2019-02-04T16:33:31.000Z,5.40
2019-02-04T16:36:12.937Z,5.36
2019-02-04T16:38:55.399Z,5.33
2019-02-04T16:41:29.265Z,5.32
2019-02-04T16:45:22.004Z,5.25
2019-02-04T16:47:09.859Z,5.19
2019-02-04T16:49:47.970Z,5.20
2019-02-04T16:52:24.131Z,5.18
2019-02-04T16:55:05.949Z,5.11
2019-02-04T16:57:41.339Z,5.09
2019-02-04T17:00:28.230Z,5.07
2019-02-04T17:03:02.215Z,5.10
2019-02-04T17:05:44.075Z,5.09
2019-02-04T17:08:26.442Z,5.06
2019-02-04T17:11:11.155Z,5.03
2019-02-04T17:14:01.705Z,5.00
2019-02-04T17:16:34.219Z,4.98
2019-02-04T17:19:20.037Z,4.95
2019-02-04T17:22:18.600Z,4.91
2019-02-04T17:25:13.837Z,4.91
2019-02-04T17:30:59.398Z,4.90
2019-02-04T17:33:44.002Z,4.92
2019-02-04T17:36:54.605Z,4.93
2019-02-04T17:39:27.125Z,4.93
2019-02-04T17:42:00.069Z,4.93
2019-02-04T17:44:43.754Z,4.95
2019-02-04T17:47:25.573Z,4.93
2019-02-04T17:53:13.224Z,4.89
2019-02-04T17:55:54.800Z,4.90
2019-02-04T17:58:34.441Z,4.89
2019-02-04T18:01:51.188Z,4.88
2019-02-04T18:04:17.891Z,4.87
2019-02-04T18:07:21.637Z,4.88
2019-02-04T18:13:08.185Z,4.91
2019-02-04T18:15:29.662Z,4.87
2019-02-04T18:18:11.277Z,4.87
2019-02-04T18:20:57.209Z,4.85
2019-02-04T18:23:45.609Z,4.82
2019-02-04T18:26:18.326Z,4.85
2019-02-04T18:29:09.516Z,4.90
2019-02-04T18:31:47.740Z,4.88
2019-02-04T18:38:51.311Z,4.89
2019-02-04T18:42:16.464Z,4.84
2019-02-04T18:45:05.100Z,4.82
2019-02-04T18:48:02.906Z,4.81
2019-02-04T18:50:34.299Z,4.78
2019-02-04T18:53:13.920Z,4.76
2019-02-04T18:56:03.216Z,4.72
2019-02-04T18:58:37.645Z,4.73
2019-02-04T19:01:08.727Z,4.71
2019-02-04T19:03:43.390Z,4.69
2019-02-04T19:06:19.039Z,4.64
2019-02-04T19:09:23.037Z,4.56
2019-02-04T19:11:49.505Z,4.53
2019-02-04T19:14:23.893Z,4.47
2019-02-04T19:16:59.183Z,4.47
2019-02-04T19:19:30.301Z,4.43
2019-02-04T19:22:01.187Z,4.43
2019-02-04T19:24:33.512Z,4.40
2019-02-04T19:27:06.558Z,4.36
2019-02-04T19:29:37.710Z,4.32
2019-02-04T19:32:10.937Z,4.29
2019-02-04T19:34:45.341Z,4.31
2019-02-04T19:37:23.727Z,4.29
2019-02-04T19:39:56.228Z,4.25
2019-02-04T19:42:27.039Z,4.22
2019-02-04T19:45:00.790Z,4.21
2019-02-04T19:47:31.496Z,4.18
2019-02-04T19:50:17.981Z,4.12
2019-02-04T19:52:59.002Z,4.09
2019-02-04T19:55:33.215Z,4.06
2019-02-04T19:58:10.083Z,4.07
2019-02-04T20:00:42.341Z,4.09
2019-02-04T20:03:20.548Z,4.03
2019-02-04T20:06:06.016Z,3.98
2019-02-04T20:08:30.174Z,3.93
2019-02-04T20:11:09.017Z,3.94
2019-02-04T20:13:45.102Z,3.91
2019-02-04T20:16:19.120Z,3.92
2019-02-04T20:18:53.506Z,3.89
2019-02-04T20:21:28.669Z,3.89
2019-02-04T20:24:11.997Z,3.88
2019-02-04T20:26:52.017Z,3.85
2019-02-04T20:29:42.311Z,3.89
2019-02-04T20:32:47.330Z,3.93
2019-02-04T20:35:32.857Z,3.95
2019-02-04T20:38:12.865Z,3.94
2019-02-04T20:40:57.175Z,3.92
2019-02-04T20:43:32.714Z,3.86
2019-02-04T20:46:11.066Z,3.83
2019-02-04T20:48:43.097Z,3.85
2019-02-04T20:51:40.665Z,3.81
2019-02-04T20:53:58.472Z,3.76
2019-02-04T20:56:47.836Z,3.78
2019-02-04T20:59:34.953Z,3.82
2019-02-04T21:02:16.241Z,3.83
2019-02-04T21:04:53.056Z,3.83
2019-02-04T21:07:39.848Z,3.80
2019-02-04T21:10:39.026Z,3.78
2019-02-04T21:16:11.579Z,3.76
2019-02-04T21:18:46.437Z,3.77
2019-02-04T21:21:17.539Z,3.78
2019-02-04T21:24:20.780Z,3.75
2019-02-04T21:27:01.883Z,3.73
2019-02-04T21:29:38.812Z,3.72
2019-02-04T21:32:18.059Z,3.75
2019-02-04T21:34:52.460Z,3.77
2019-02-04T21:37:27.733Z,3.75
2019-02-04T21:40:03.770Z,3.77
2019-02-04T21:42:47.915Z,3.77
2019-02-04T21:45:31.039Z,3.79
2019-02-04T21:47:59.439Z,3.78
2019-02-04T21:50:37.529Z,3.81
2019-02-04T21:53:13.601Z,3.83
2019-02-04T21:55:55.690Z,3.81
2019-02-04T21:58:30.214Z,3.77
2019-02-04T22:01:07.801Z,3.77
2019-02-04T22:03:40.077Z,3.81
2019-02-04T22:06:23.465Z,3.86
2019-02-04T22:08:58.641Z,3.83
2019-02-04T22:11:30.950Z,3.83
2019-02-04T22:14:05.316Z,3.78
2019-02-04T22:16:48.762Z,3.77
2019-02-04T22:19:49.178Z,3.79
2019-02-04T22:22:27.640Z,3.78
2019-02-04T22:25:19.610Z,3.80
2019-02-04T22:27:51.788Z,3.76
2019-02-04T22:30:33.973Z,3.76
2019-02-04T22:33:07.732Z,3.80
2019-02-04T22:35:45.485Z,3.79
2019-02-04T22:38:39.680Z,3.76
2019-02-04T22:41:05.029Z,3.75
2019-02-04T22:43:44.774Z,3.77
2019-02-04T22:46:17.386Z,3.71
2019-02-04T22:48:52.914Z,3.68
2019-02-04T22:51:29.417Z,3.72
2019-02-04T22:54:01.458Z,3.72
2019-02-04T22:56:38.852Z,3.75
2019-02-04T22:59:12.301Z,3.77
2019-02-04T23:01:52.047Z,3.76
2019-02-04T23:04:26.238Z,3.72
2019-02-04T23:06:59.929Z,3.71
2019-02-04T23:09:33.400Z,3.77
2019-02-04T23:12:05.299Z,3.78
2019-02-04T23:14:36.111Z,3.74
2019-02-04T23:17:07.368Z,3.73
2019-02-04T23:19:46.142Z,3.72
2019-02-04T23:22:17.221Z,3.70
2019-02-04T23:24:48.167Z,3.69
2019-02-04T23:27:24.421Z,3.70
2019-02-04T23:29:59.252Z,3.65
2019-02-04T23:32:30.053Z,3.65
2019-02-04T23:35:01.232Z,3.68
2019-02-04T23:37:34.339Z,3.69
2019-02-04T23:40:05.693Z,3.72
2019-02-04T23:42:36.513Z,3.79
2019-02-04T23:45:11.863Z,3.84
2019-02-04T23:47:44.221Z,3.91
2019-02-04T23:50:18.436Z,3.92
2019-02-04T23:52:55.738Z,3.88
2019-02-04T23:55:26.608Z,3.93
2019-02-04T23:58:03.355Z,3.96
